Stockton, CA (95207)

5:39 AM PDT on August 29, 2014 (GMT -0700)
Village North Apartments | Change Station
CLOSE
Current Station
Personal Weather Station
Location: Stockton, CA
Elevation: 33 ft
Nearby Weather Stations

Elev 33 ft 38.01 °N, 121.31 °W | Updated 0 second ago

Clear
Clear
63.3 °F
Feels Like 63.3 °F
N
0.0
Wind Variable Wind from West
Gusts 1.2 mph

Today
High -- | Low -- °F
--% Chance of Precip.
Yesterday
High -- | Low -- °F
Precip. -- in
6:32 AM 7:39 PM
Waxing Crescent, 14% visible
Pressure 29.88 in
Visibility 10.0 miles
Clouds Clear
Dew Point 57 °F
Humidity 80%
Rainfall 0.00 in
Snow Depth Not available.
UV 0 out of 12
Pollen 8.60 out of 12
Ozone Good
PM2.5 Good
Flu Activity Not available.
METAR KSCK 291155Z AUTO 33006KT 10SM CLR 17/12 A2988 RMK AO2 SLP116 7//// T01670117 10256 20167 56002 TSNO

More Conditions Fewer Conditions

Pressure 29.88 in
Visibility 10.0 miles
Clouds Clear
Dew Point 57 °F
Humidity 80%
Rainfall 0.00 in
Snow Depth Not available.
UV 0 out of 12
Pollen 8.60 out of 12
Ozone Good
PM2.5 Good
Flu Activity Not available.
METAR KSCK 291155Z AUTO 33006KT 10SM CLR 17/12 A2988 RMK AO2 SLP116 7//// T01670117 10256 20167 56002 TSNO

More Conditions Fewer Conditions

10-Day Weather Forecast

Almanac

Astronomy

Aug. 29, 2014 Rise Set
Actual Time 6:32 AM PDT 7:39 PM PDT
Civil Twilight 6:05 AM PDT 8:06 PM PDT
Nautical Twilight 5:33 AM PDT 8:38 PM PDT
Astronomical Twilight 4:59 AM PDT 9:11 PM PDT
Moon 10:22 AM PDT 9:44 PM PDT
Length of Visible Light 14h 00m
Length of Day
13h 06m
Tomorrow will be 2m 20s shorter.
Waxing Crescent, 14% of the Moon is Illuminated
Today
Waxing Crescent
Sep 2
First Quarter
Sep 8
Full
Sep 15
Last Quarter
Sep 24
New

Today's Extremes

State Highs State Lows

Community

WunderPhotos

Upload Photos

1,748,219 photos uploaded!

Nearby

Air Quality

  Air Quality AQ Index Pollutant
Yesterday Moderate
OZONE
Yesterday Good
PM2.5
Current Good
PM2.5
Current Good
OZONE
Friday Moderate
OZONE
Saturday Moderate
OZONE
Sunday Moderate
OZONE
Monday Moderate
OZONE
Tuesday Moderate
OZONE

Snow Depth

Station Depth Elevation
Blue Lakes 0 in 8000 ft
Forestdale Creek 0 in 8029 ft
Echo Peak 0 in 7800 ft
Fallen Leaf 0 in 6300 ft
Rubicon #2 0 in 7500 ft

Earthquake Activity

City Distance Mag. Time & Date
Napa, California 58 miles 2.6 11:57 AM PDT
2014-08-27
The Geysers, California 98 miles 2.6 7:42 AM PDT
2014-08-27
Soledad, California 102 miles 2.6 12:15 PM PDT
2014-08-26
Napa, California 58 miles 2.5 10:56 AM PDT
2014-08-26
Minimum magnitude displayed is 2.5.

Coastal Water Temperatures

Place Temperature
San Francisco, CA 64.9 °F
Richmond, CA 66.9 °F
Port Chicago, CA 69.1 °F

Nearby Weather Stations